Terminal Aerodrome Forecast
Issued by NWS

Home | Current Version | Previous Version | Text Only | Print | Product List | Glossary On
Versions: 1 2 3 4 5 6 7 8 9 10 11 12 13 14 15 16 17 18 19
000
FTUS43 KJKL 211133
TAFSME
TAF
KSME 211133Z 2112/2212 19004KT 5SM SHRA SCT025 OVC050
     FM211300 20005KT 5SM SHRA OVC025
     FM211600 21005KT 5SM SHRA VCTS OVC025CB
     FM212300 24004KT P6SM VCSH OVC070
     FM220600 31004KT P6SM BKN040
     FM220800 31004KT P6SM SCT035=

USA.gov is the U.S. government's official web portal to all federal, state and local government web resources and services.